Station History

Weather Underground - logo

Station Historical Data
Daily Summary for July 8, 2017 Units:  English    Metric   Both
« Previous Day
Next Day »
Daily Weekly Monthly Yearly Custom
  High: Low: Average:
Temperature: 105.7 °F 74.4 °F 89.7 °F
Dew Point: 71.0 °F 55.8 °F 62.8 °F
Humidity: 75 % 22 % 45 %
Wind Speed: 5.0 mph 0.0 mph 1.4 mph
Wind Gust: 5.0 mph - -
Wind:- - SSW
Pressure: 29.84 in 29.71 in -
Precipitation: 0.00 in    
Historical Graphs
 
 
Tabular Data for July 8, 2017
Time Temperature Dew Point Pressure Wind Wind Speed Wind Gust Humidity Rainfall Rate (Hourly)
00:04 81.6 °F 70.0 °F 29.79 in Calm     68 % 0.00 in
00:09 81.4 °F 70.2 °F 29.79 in Calm     69 % 0.00 in
00:14 81.2 °F 70.5 °F 29.79 in Calm     70 % 0.00 in
00:19 81.2 °F 70.5 °F 29.79 in Calm     70 % 0.00 in
00:24 81.1 °F 70.4 °F 29.79 in Calm     70 % 0.00 in
00:30 80.9 °F 70.2 °F 29.79 in Calm     70 % 0.00 in
00:35 80.7 °F 70.0 °F 29.79 in Calm     70 % 0.00 in
00:40 80.5 °F 69.8 °F 29.79 in Calm     70 % 0.00 in
00:45 80.4 °F 70.5 °F 29.79 in Calm     72 % 0.00 in
00:50 80.1 °F 70.3 °F 29.79 in Calm     72 % 0.00 in
00:55 79.9 °F 70.9 °F 29.79 in Calm     74 % 0.00 in
01:00 79.6 °F 71.0 °F 29.79 in Calm     75 % 0.00 in
01:05 79.4 °F 70.4 °F 29.79 in Calm     74 % 0.00 in
01:10 79.3 °F 69.1 °F 29.79 in Calm     71 % 0.00 in
01:15 79.3 °F 68.7 °F 29.79 in Calm     70 % 0.00 in
01:20 79.1 °F 68.1 °F 29.79 in NE 1.2 mph 1.2 mph 69 % 0.00 in
01:25 79.0 °F 68.0 °F 29.79 in East 3.5 mph 3.5 mph 69 % 0.00 in
01:30 79.1 °F 68.1 °F 29.79 in East 1.2 mph 1.2 mph 69 % 0.00 in
01:35 79.0 °F 67.5 °F 29.79 in East 1.2 mph 1.2 mph 68 % 0.00 in
01:40 79.0 °F 67.5 °F 29.79 in East 1.2 mph   68 % 0.00 in
01:45 79.1 °F 67.6 °F 29.79 in East 2.3 mph 2.3 mph 68 % 0.00 in
01:50 79.1 °F 67.2 °F 29.79 in East 1.2 mph 1.2 mph 67 % 0.00 in
01:55 79.1 °F 67.6 °F 29.79 in East 1.2 mph 1.2 mph 68 % 0.00 in
02:00 79.1 °F 67.6 °F 29.79 in Calm     68 % 0.00 in
02:05 79.0 °F 67.5 °F 29.79 in East 1.2 mph 1.2 mph 68 % 0.00 in
02:10 78.9 °F 67.4 °F 29.79 in Calm     68 % 0.00 in
02:15 78.8 °F 67.3 °F 29.79 in East 1.2 mph 1.2 mph 68 % 0.00 in
02:20 78.7 °F 67.2 °F 29.79 in Calm     68 % 0.00 in
02:25 78.7 °F 66.8 °F 29.79 in Calm     67 % 0.00 in
02:30 78.6 °F 66.7 °F 29.79 in Calm     67 % 0.00 in
02:35 78.6 °F 66.7 °F 29.79 in Calm     67 % 0.00 in
02:40 78.5 °F 66.6 °F 29.79 in Calm     67 % 0.00 in
02:45 78.5 °F 66.6 °F 29.79 in East 1.2 mph   67 % 0.00 in
02:50 78.4 °F 66.5 °F 29.79 in Calm     67 % 0.00 in
02:55 78.3 °F 66.4 °F 29.79 in Calm     67 % 0.00 in
03:00 78.2 °F 65.9 °F 29.79 in Calm     66 % 0.00 in
03:05 78.2 °F 65.9 °F 29.79 in Calm     66 % 0.00 in
03:10 78.2 °F 66.3 °F 29.79 in Calm     67 % 0.00 in
03:15 78.0 °F 66.2 °F 29.79 in Calm     67 % 0.00 in
03:20 77.8 °F 66.4 °F 29.79 in Calm     68 % 0.00 in
03:25 77.5 °F 66.1 °F 29.79 in Calm     68 % 0.00 in
03:30 77.4 °F 66.0 °F 29.79 in Calm     68 % 0.00 in
03:35 77.3 °F 65.9 °F 29.79 in Calm     68 % 0.00 in
03:40 77.1 °F 66.1 °F 29.79 in Calm   0.1 mph 69 % 0.00 in
03:45 77.0 °F 66.0 °F 29.79 in Calm     69 % 0.00 in
03:50 76.9 °F 66.0 °F 29.79 in Calm     69 % 0.00 in
03:55 76.9 °F 65.1 °F 29.79 in East 2.3 mph 2.3 mph 67 % 0.00 in
04:00 77.2 °F 65.0 °F 29.79 in East 2.3 mph 2.3 mph 66 % 0.00 in
04:05 77.5 °F 64.4 °F 29.79 in Calm   0.6 mph 64 % 0.00 in
04:10 77.9 °F 63.8 °F 29.79 in East 2.3 mph 2.3 mph 62 % 0.00 in
04:15 78.3 °F 63.7 °F 29.79 in East 1.2 mph 1.2 mph 61 % 0.00 in
04:21 78.4 °F 63.8 °F 29.79 in East 1.2 mph 1.2 mph 61 % 0.00 in
04:26 78.4 °F 63.8 °F 29.79 in Calm   0.4 mph 61 % 0.00 in
04:31 78.3 °F 63.7 °F 29.79 in East 1.2 mph 1.2 mph 61 % 0.00 in
04:35 78.2 °F 63.6 °F 29.80 in East 2.3 mph 2.3 mph 61 % 0.00 in
04:41 78.1 °F 63.6 °F 29.80 in Calm     61 % 0.00 in
04:46 78.0 °F 63.5 °F 29.80 in East 1.2 mph 1.2 mph 61 % 0.00 in
04:51 77.9 °F 63.4 °F 29.80 in East 1.2 mph 1.2 mph 61 % 0.00 in
04:56 77.7 °F 63.2 °F 29.80 in Calm   0.2 mph 61 % 0.00 in
05:01 77.6 °F 63.5 °F 29.80 in East 1.2 mph 1.2 mph 62 % 0.00 in
05:06 77.4 °F 63.4 °F 29.80 in Calm     62 % 0.00 in
05:11 77.2 °F 63.2 °F 29.80 in Calm     62 % 0.00 in
05:16 77.0 °F 63.0 °F 29.80 in East 1.2 mph 1.2 mph 62 % 0.00 in
05:21 76.8 °F 62.8 °F 29.80 in East 2.3 mph   62 % 0.00 in
05:26 76.6 °F 63.1 °F 29.81 in East 1.2 mph   63 % 0.00 in
05:31 76.4 °F 62.9 °F 29.81 in Calm     63 % 0.00 in
05:36 76.1 °F 63.0 °F 29.81 in Calm   0.1 mph 64 % 0.00 in
05:41 75.9 °F 62.8 °F 29.81 in East 1.2 mph   64 % 0.00 in
05:46 75.7 °F 62.7 °F 29.81 in Calm     64 % 0.00 in
05:48 75.6 °F 62.6 °F 29.81 in Calm     64 % 0.00 in
05:53 75.4 °F 62.4 °F 29.81 in Calm     64 % 0.00 in
05:58 75.2 °F 62.2 °F 29.81 in Calm     64 % 0.00 in
06:03 75.0 °F 62.4 °F 29.81 in Calm     65 % 0.00 in
06:08 74.8 °F 62.7 °F 29.81 in East 1.2 mph 1.2 mph 66 % 0.00 in
06:13 74.5 °F 62.4 °F 29.81 in East 1.2 mph 1.2 mph 66 % 0.00 in
06:18 74.4 °F 62.3 °F 29.81 in Calm     66 % 0.00 in
06:23 74.5 °F 62.0 °F 29.81 in Calm     65 % 0.00 in
06:28 74.5 °F 62.0 °F 29.82 in East 1.2 mph   65 % 0.00 in
06:33 74.7 °F 62.1 °F 29.82 in Calm     65 % 0.00 in
06:38 74.9 °F 62.3 °F 29.82 in East 1.2 mph   65 % 0.00 in
06:43 75.1 °F 62.1 °F 29.82 in East 1.2 mph   64 % 0.00 in
06:48 75.5 °F 62.5 °F 29.82 in East 1.2 mph   64 % 0.00 in
06:53 76.4 °F 62.4 °F 29.82 in Calm     62 % 0.00 in
06:58 77.3 °F 62.3 °F 29.82 in SSE 1.2 mph 1.2 mph 60 % 0.00 in
07:03 78.1 °F 62.6 °F 29.82 in Calm     59 % 0.00 in
07:08 78.7 °F 63.2 °F 29.82 in Calm     59 % 0.00 in
07:13 79.3 °F 62.7 °F 29.83 in SSE 1.2 mph 1.2 mph 57 % 0.00 in
07:18 80.0 °F 62.4 °F 29.83 in SSE 1.2 mph 1.2 mph 55 % 0.00 in
07:23 80.5 °F 61.8 °F 29.83 in SSE 1.2 mph   53 % 0.00 in
07:28 80.9 °F 61.6 °F 29.83 in SE 1.2 mph 1.2 mph 52 % 0.00 in
07:33 81.2 °F 62.4 °F 29.83 in SE 3.5 mph 3.5 mph 53 % 0.00 in
07:38 81.6 °F 62.3 °F 29.83 in SE 2.3 mph 2.3 mph 52 % 0.00 in
07:43 82.0 °F 62.6 °F 29.83 in ESE 2.3 mph 2.3 mph 52 % 0.00 in
07:48 82.4 °F 61.9 °F 29.83 in SE 1.2 mph 1.2 mph 50 % 0.00 in
07:53 82.8 °F 61.7 °F 29.83 in SE 2.3 mph 2.3 mph 49 % 0.00 in
07:58 83.2 °F 61.5 °F 29.83 in SE 2.3 mph 2.3 mph 48 % 0.00 in
08:03 83.7 °F 60.7 °F 29.83 in NNE 3.5 mph 3.5 mph 46 % 0.00 in
08:08 84.0 °F 60.4 °F 29.83 in SE 3.5 mph 3.5 mph 45 % 0.00 in
08:13 84.6 °F 60.3 °F 29.83 in South 3.5 mph 3.5 mph 44 % 0.00 in
08:18 85.3 °F 61.6 °F 29.83 in SSE 2.3 mph 2.3 mph 45 % 0.00 in
08:23 85.9 °F 60.1 °F 29.83 in SE 3.0 mph 3.0 mph 42 % 0.00 in
08:29 86.1 °F 59.0 °F 29.83 in SE 2.0 mph 2.0 mph 40 % 0.00 in
08:34 86.5 °F 57.9 °F 29.83 in ESE 2.3 mph 2.3 mph 38 % 0.00 in
08:39 86.8 °F 56.6 °F 29.83 in WSW 2.3 mph 2.3 mph 36 % 0.00 in
08:44 86.9 °F 56.0 °F 29.84 in SSW 3.5 mph 3.5 mph 35 % 0.00 in
08:49 87.1 °F 56.9 °F 29.84 in SE 4.6 mph 4.6 mph 36 % 0.00 in
08:54 87.5 °F 59.5 °F 29.84 in SSE 1.2 mph 1.2 mph 39 % 0.00 in
08:59 88.0 °F 57.7 °F 29.84 in SE 1.2 mph 1.2 mph 36 % 0.00 in
09:04 88.4 °F 57.3 °F 29.83 in SSE 1.2 mph 1.2 mph 35 % 0.00 in
09:09 88.7 °F 58.3 °F 29.83 in SSE 1.2 mph 1.2 mph 36 % 0.00 in
09:14 88.9 °F 58.5 °F 29.83 in SSE 3.5 mph 3.5 mph 36 % 0.00 in
09:19 89.3 °F 58.1 °F 29.84 in SSE 3.0 mph 3.0 mph 35 % 0.00 in
09:24 89.5 °F 58.2 °F 29.84 in ESE 2.0 mph 2.0 mph 35 % 0.00 in
09:29 89.8 °F 57.7 °F 29.84 in South 2.3 mph 2.3 mph 34 % 0.00 in
09:34 90.1 °F 56.3 °F 29.84 in SW 2.3 mph 2.3 mph 32 % 0.00 in
09:39 90.4 °F 57.4 °F 29.84 in East 3.5 mph 3.5 mph 33 % 0.00 in
09:44 90.6 °F 59.2 °F 29.84 in NNE 2.3 mph 2.3 mph 35 % 0.00 in
09:49 90.9 °F 57.0 °F 29.84 in SE 2.3 mph 2.3 mph 32 % 0.00 in
09:54 91.2 °F 56.3 °F 29.84 in Calm     31 % 0.00 in
09:59 91.7 °F 55.9 °F 29.84 in SSE 2.3 mph 2.3 mph 30 % 0.00 in
10:04 92.2 °F 57.2 °F 29.84 in North 3.0 mph 3.0 mph 31 % 0.00 in
10:09 92.2 °F 58.1 °F 29.83 in North 2.3 mph 2.3 mph 32 % 0.00 in
10:14 92.6 °F 57.6 °F 29.83 in SSE 1.2 mph 1.2 mph 31 % 0.00 in
10:19 92.7 °F 57.6 °F 29.84 in ESE 2.3 mph 2.3 mph 31 % 0.00 in
10:24 93.1 °F 58.0 °F 29.84 in South 2.3 mph 2.3 mph 31 % 0.00 in
10:29 93.5 °F 58.3 °F 29.83 in SSW 1.2 mph 1.2 mph 31 % 0.00 in
10:34 93.9 °F 58.7 °F 29.83 in SSE 2.3 mph 2.3 mph 31 % 0.00 in
10:39 94.2 °F 57.1 °F 29.83 in SSE 3.5 mph 3.5 mph 29 % 0.00 in
10:44 94.0 °F 59.7 °F 29.83 in East 4.0 mph 4.0 mph 32 % 0.00 in
10:49 94.1 °F 59.7 °F 29.83 in East 1.2 mph 1.2 mph 32 % 0.00 in
10:54 94.5 °F 58.3 °F 29.83 in ESE 3.5 mph 3.5 mph 30 % 0.00 in
10:59 94.8 °F 59.5 °F 29.83 in SSE 1.0 mph 1.0 mph 31 % 0.00 in
11:04 95.3 °F 60.8 °F 29.83 in SE 1.2 mph   32 % 0.00 in
11:09 95.8 °F 58.4 °F 29.83 in North 2.3 mph 2.3 mph 29 % 0.00 in
11:14 95.9 °F 59.5 °F 29.83 in SSE 1.2 mph 1.2 mph 30 % 0.00 in
11:19 96.2 °F 58.8 °F 29.83 in ENE 2.0 mph 2.0 mph 29 % 0.00 in
11:24 96.3 °F 57.9 °F 29.82 in NW 2.3 mph 2.3 mph 28 % 0.00 in
11:29 96.4 °F 58.0 °F 29.82 in NNW 2.3 mph 2.3 mph 28 % 0.00 in
11:34 96.9 °F 60.3 °F 29.82 in NNW 1.2 mph 1.2 mph 30 % 0.00 in
11:39 97.3 °F 62.5 °F 29.82 in Calm   0.1 mph 32 % 0.00 in
11:44 97.7 °F 60.1 °F 29.82 in SSW 2.3 mph 2.3 mph 29 % 0.00 in
11:49 98.0 °F 57.3 °F 29.82 in WNW 4.0 mph 4.0 mph 26 % 0.00 in
11:54 97.7 °F 59.1 °F 29.81 in NE 2.3 mph 2.3 mph 28 % 0.00 in
11:59 98.0 °F 58.3 °F 29.82 in NW 3.5 mph 3.5 mph 27 % 0.00 in
12:04 98.6 °F 60.8 °F 29.82 in East 2.0 mph 2.0 mph 29 % 0.00 in
12:09 99.0 °F 55.9 °F 29.81 in SSW 3.5 mph 3.5 mph 24 % 0.00 in
12:15 99.1 °F 58.2 °F 29.81 in SSW 3.5 mph 3.5 mph 26 % 0.00 in
12:20 99.7 °F 59.8 °F 29.81 in North 5.0 mph 5.0 mph 27 % 0.00 in
12:25 100.3 °F 59.2 °F 29.81 in NNW 1.2 mph 1.2 mph 26 % 0.00 in
12:30 100.8 °F 60.7 °F 29.81 in ESE 2.3 mph 2.3 mph 27 % 0.00 in
12:35 101.2 °F 60.0 °F 29.81 in SSW 2.3 mph 2.3 mph 26 % 0.00 in
12:40 101.0 °F 56.4 °F 29.81 in ESE 4.0 mph 4.0 mph 23 % 0.00 in
12:45 100.6 °F 58.4 °F 29.80 in SSW 4.6 mph 4.6 mph 25 % 0.00 in
12:50 100.9 °F 59.7 °F 29.80 in West 1.2 mph 1.2 mph 26 % 0.00 in
12:55 101.3 °F 59.0 °F 29.80 in SE 3.5 mph 3.5 mph 25 % 0.00 in
13:00 101.1 °F 57.7 °F 29.80 in SSE 3.5 mph 3.5 mph 24 % 0.00 in
13:05 101.0 °F 57.6 °F 29.80 in NNW 2.3 mph 2.3 mph 24 % 0.00 in
13:10 100.7 °F 59.6 °F 29.80 in SSE 1.2 mph 1.2 mph 26 % 0.00 in
13:15 100.6 °F 58.4 °F 29.80 in SSE 3.5 mph 3.5 mph 25 % 0.00 in
13:20 100.6 °F 62.6 °F 29.80 in South 1.2 mph 1.2 mph 29 % 0.00 in
13:25 100.7 °F 57.3 °F 29.80 in ESE 2.3 mph 2.3 mph 24 % 0.00 in
13:30 101.0 °F 59.8 °F 29.80 in SSE 3.5 mph 3.5 mph 26 % 0.00 in
13:35 101.3 °F 59.0 °F 29.80 in SE 4.0 mph 4.0 mph 25 % 0.00 in
13:40 101.5 °F 59.1 °F 29.80 in SSE 3.5 mph 3.5 mph 25 % 0.00 in
13:45 101.8 °F 55.8 °F 29.79 in WNW 3.5 mph 3.5 mph 22 % 0.00 in
13:50 102.4 °F 56.3 °F 29.80 in West 3.5 mph 3.5 mph 22 % 0.00 in
13:55 102.9 °F 59.2 °F 29.79 in SE 1.2 mph 1.2 mph 24 % 0.00 in
14:00 103.2 °F 59.4 °F 29.79 in North 1.2 mph 1.2 mph 24 % 0.00 in
14:05 103.2 °F 60.6 °F 29.79 in ENE 1.2 mph 1.2 mph 25 % 0.00 in
14:10 103.5 °F 61.9 °F 29.78 in SE 2.3 mph 2.3 mph 26 % 0.00 in
14:15 103.8 °F 57.5 °F 29.78 in WNW 3.5 mph 3.5 mph 22 % 0.00 in
14:20 103.5 °F 59.7 °F 29.78 in NNE 2.3 mph 2.3 mph 24 % 0.00 in
14:25 103.0 °F 59.2 °F 29.78 in ENE 2.3 mph 2.3 mph 24 % 0.00 in
14:30 103.5 °F 59.7 °F 29.78 in SSE 2.3 mph 2.3 mph 24 % 0.00 in
14:35 103.4 °F 57.1 °F 29.78 in WNW 2.3 mph 2.3 mph 22 % 0.00 in
14:40 103.4 °F 59.6 °F 29.78 in NW 2.3 mph 2.3 mph 24 % 0.00 in
14:45 103.2 °F 62.7 °F 29.77 in ESE 2.3 mph 2.3 mph 27 % 0.00 in
14:50 103.6 °F 58.6 °F 29.78 in WNW 3.5 mph 3.5 mph 23 % 0.00 in
14:55 103.3 °F 61.7 °F 29.77 in SSW 3.0 mph 3.0 mph 26 % 0.00 in
15:00 104.0 °F 57.6 °F 29.77 in NW 2.3 mph 2.3 mph 22 % 0.00 in
15:05 104.1 °F 61.3 °F 29.77 in East 1.2 mph   25 % 0.00 in
15:10 104.9 °F 58.4 °F 29.76 in NW 1.2 mph 1.2 mph 22 % 0.00 in
15:15 104.7 °F 60.7 °F 29.76 in WNW 3.5 mph 3.5 mph 24 % 0.00 in
15:20 104.4 °F 58.0 °F 29.76 in WNW 3.5 mph 3.5 mph 22 % 0.00 in
15:25 104.7 °F 61.8 °F 29.76 in Calm     25 % 0.00 in
15:30 105.4 °F 58.8 °F 29.76 in SSE 2.3 mph 2.3 mph 22 % 0.00 in
15:35 105.2 °F 58.6 °F 29.76 in NW 1.2 mph 1.2 mph 22 % 0.00 in
15:40 104.9 °F 59.6 °F 29.76 in NW 2.3 mph 2.3 mph 23 % 0.00 in
15:45 104.3 °F 59.1 °F 29.75 in NW 2.3 mph 2.3 mph 23 % 0.00 in
15:50 104.8 °F 61.9 °F 29.75 in SE 2.3 mph 2.3 mph 25 % 0.00 in
15:55 105.4 °F 61.2 °F 29.75 in WNW 1.2 mph 1.2 mph 24 % 0.00 in
16:00 104.8 °F 59.5 °F 29.75 in NW 1.2 mph 1.3 mph 23 % 0.00 in
16:05 104.5 °F 59.3 °F 29.74 in WNW 2.3 mph 2.3 mph 23 % 0.00 in
16:10 104.7 °F 59.5 °F 29.74 in NW 2.0 mph 2.0 mph 23 % 0.00 in
16:15 105.0 °F 58.5 °F 29.74 in NW 2.3 mph 2.3 mph 22 % 0.00 in
16:20 104.8 °F 59.5 °F 29.74 in North 2.3 mph 2.3 mph 23 % 0.00 in
16:25 105.2 °F 59.9 °F 29.74 in NNW 2.3 mph 2.3 mph 23 % 0.00 in
16:30 105.2 °F 58.6 °F 29.74 in NW 3.5 mph 3.5 mph 22 % 0.00 in
16:35 104.8 °F 60.7 °F 29.74 in NW 2.3 mph 2.3 mph 24 % 0.00 in
16:41 104.7 °F 60.7 °F 29.73 in East 2.3 mph 2.3 mph 24 % 0.00 in
16:46 104.7 °F 60.7 °F 29.73 in NW 2.3 mph 2.3 mph 24 % 0.00 in
16:51 104.9 °F 59.6 °F 29.73 in WNW 1.2 mph 1.2 mph 23 % 0.00 in
16:56 105.5 °F 61.3 °F 29.73 in North 2.3 mph 2.3 mph 24 % 0.00 in
17:01 105.6 °F 61.4 °F 29.73 in NW 1.0 mph 1.0 mph 24 % 0.00 in
17:06 105.7 °F 62.7 °F 29.72 in WNW 1.2 mph 1.2 mph 25 % 0.00 in
17:07 105.7 °F 61.5 °F 29.73 in NW 2.0 mph 2.0 mph 24 % 0.00 in
17:12 105.0 °F 62.1 °F 29.72 in NNW 2.3 mph 2.3 mph 25 % 0.00 in
17:17 104.4 °F 62.7 °F 29.72 in NNW 3.5 mph 3.5 mph 26 % 0.00 in
17:22 104.1 °F 61.3 °F 29.72 in NW 3.5 mph 3.5 mph 25 % 0.00 in
17:27 103.9 °F 63.3 °F 29.72 in WNW 3.0 mph 3.0 mph 27 % 0.00 in
17:32 103.8 °F 62.2 °F 29.72 in WNW 3.5 mph 3.5 mph 26 % 0.00 in
17:37 103.8 °F 62.2 °F 29.72 in NW 2.3 mph 2.3 mph 26 % 0.00 in
17:42 103.8 °F 62.2 °F 29.72 in NW 3.5 mph 3.5 mph 26 % 0.00 in
17:47 103.6 °F 64.1 °F 29.72 in NW 2.3 mph 2.3 mph 28 % 0.00 in
17:52 103.4 °F 64.9 °F 29.72 in WNW 2.3 mph 2.3 mph 29 % 0.00 in
17:57 103.1 °F 64.7 °F 29.72 in North 3.5 mph 3.5 mph 29 % 0.00 in
18:02 102.7 °F 65.3 °F 29.72 in NW 3.5 mph 3.5 mph 30 % 0.00 in
18:07 102.4 °F 64.1 °F 29.72 in West 3.5 mph 3.5 mph 29 % 0.00 in
18:12 102.2 °F 64.9 °F 29.72 in NW 2.3 mph 2.3 mph 30 % 0.00 in
18:17 102.1 °F 63.8 °F 29.72 in NW 3.5 mph 3.5 mph 29 % 0.00 in
18:22 101.7 °F 64.5 °F 29.72 in NW 3.5 mph 3.5 mph 30 % 0.00 in
18:27 101.5 °F 64.3 °F 29.71 in West 2.3 mph 2.3 mph 30 % 0.00 in
18:32 101.6 °F 63.4 °F 29.72 in NW 2.3 mph 2.3 mph 29 % 0.00 in
18:37 101.4 °F 64.2 °F 29.72 in North 2.3 mph 2.3 mph 30 % 0.00 in
18:42 101.2 °F 65.0 °F 29.72 in NW 1.2 mph 1.2 mph 31 % 0.00 in
18:47 101.0 °F 64.8 °F 29.72 in NW 1.2 mph 1.2 mph 31 % 0.00 in
18:52 100.8 °F 65.5 °F 29.72 in NW 1.2 mph 1.2 mph 32 % 0.00 in
18:57 100.5 °F 65.3 °F 29.72 in NW 3.5 mph 3.5 mph 32 % 0.00 in
19:02 100.1 °F 65.8 °F 29.72 in WNW 2.3 mph 2.3 mph 33 % 0.00 in
19:07 99.5 °F 67.8 °F 29.72 in NW 2.3 mph 2.3 mph 36 % 0.00 in
19:12 99.0 °F 65.7 °F 29.72 in NW 2.3 mph 2.3 mph 34 % 0.00 in
19:17 98.8 °F 65.6 °F 29.72 in NW 2.3 mph 2.3 mph 34 % 0.00 in
19:22 98.3 °F 65.1 °F 29.72 in NW 1.2 mph   34 % 0.00 in
19:27 97.6 °F 65.3 °F 29.72 in NW 1.2 mph 1.2 mph 35 % 0.00 in
19:32 97.0 °F 64.8 °F 29.73 in NW 1.2 mph   35 % 0.00 in
19:37 96.5 °F 63.5 °F 29.73 in Calm     34 % 0.00 in
19:42 96.1 °F 63.2 °F 29.73 in NW 1.2 mph 1.2 mph 34 % 0.00 in
19:47 95.7 °F 62.8 °F 29.73 in Calm     34 % 0.00 in
19:49 95.5 °F 61.8 °F 29.73 in Calm   0.2 mph 33 % 0.00 in
19:54 95.0 °F 61.4 °F 29.73 in Calm     33 % 0.00 in
20:00 94.6 °F 63.5 °F 29.73 in Calm     36 % 0.00 in
20:04 94.1 °F 64.6 °F 29.74 in Calm     38 % 0.00 in
20:10 93.4 °F 65.5 °F 29.74 in Calm     40 % 0.00 in
20:15 92.6 °F 64.8 °F 29.74 in Calm     40 % 0.00 in
20:20 91.9 °F 65.5 °F 29.74 in Calm     42 % 0.00 in
20:25 91.1 °F 65.5 °F 29.75 in Calm     43 % 0.00 in
20:30 90.5 °F 63.6 °F 29.74 in Calm     41 % 0.00 in
20:35 90.1 °F 64.6 °F 29.75 in Calm     43 % 0.00 in
20:40 89.7 °F 63.6 °F 29.75 in Calm     42 % 0.00 in
20:45 89.4 °F 64.0 °F 29.75 in Calm     43 % 0.00 in
20:50 89.0 °F 63.6 °F 29.75 in Calm     43 % 0.00 in
20:55 88.7 °F 64.0 °F 29.75 in Calm     44 % 0.00 in
21:00 88.3 °F 64.3 °F 29.76 in Calm     45 % 0.00 in
21:05 88.0 °F 64.0 °F 29.76 in Calm     45 % 0.00 in
21:10 87.7 °F 64.4 °F 29.76 in Calm     46 % 0.00 in
21:15 87.4 °F 65.9 °F 29.76 in Calm     49 % 0.00 in
21:20 87.0 °F 64.3 °F 29.76 in Calm     47 % 0.00 in
21:35 86.9 °F 63.0 °F 29.77 in Calm     45 % 0.00 in
21:40 86.7 °F 62.8 °F 29.77 in Calm     45 % 0.00 in
21:45 86.4 °F 63.2 °F 29.77 in Calm     46 % 0.00 in
21:50 85.9 °F 63.9 °F 29.77 in Calm     48 % 0.00 in
21:55 85.6 °F 64.8 °F 29.77 in Calm     50 % 0.00 in
22:00 85.4 °F 65.2 °F 29.77 in Calm     51 % 0.00 in
22:05 85.0 °F 65.4 °F 29.77 in Calm     52 % 0.00 in
22:10 84.6 °F 65.6 °F 29.78 in Calm     53 % 0.00 in
22:15 83.9 °F 66.0 °F 29.78 in Calm     55 % 0.00 in
22:20 83.5 °F 65.1 °F 29.78 in Calm     54 % 0.00 in
22:25 83.3 °F 64.4 °F 29.78 in Calm     53 % 0.00 in
22:30 83.1 °F 64.7 °F 29.78 in Calm     54 % 0.00 in
22:35 83.0 °F 65.7 °F 29.78 in Calm     56 % 0.00 in
22:40 82.8 °F 67.5 °F 29.78 in Calm     60 % 0.00 in
22:45 82.6 °F 67.3 °F 29.78 in Calm     60 % 0.00 in
22:50 82.2 °F 67.9 °F 29.78 in Calm     62 % 0.00 in
22:55 81.8 °F 68.0 °F 29.78 in Calm     63 % 0.00 in
22:56 81.8 °F 68.0 °F 29.78 in Calm     63 % 0.00 in
23:01 81.5 °F 68.1 °F 29.78 in Calm     64 % 0.00 in
23:06 81.3 °F 68.4 °F 29.78 in Calm     65 % 0.00 in
23:11 81.1 °F 69.1 °F 29.79 in Calm     67 % 0.00 in
23:16 81.0 °F 69.0 °F 29.79 in Calm     67 % 0.00 in
23:21 81.0 °F 68.1 °F 29.78 in Calm     65 % 0.00 in
23:26 81.2 °F 67.4 °F 29.79 in Calm     63 % 0.00 in
23:31 81.2 °F 67.4 °F 29.78 in Calm     63 % 0.00 in
23:36 80.9 °F 68.0 °F 29.78 in Calm     65 % 0.00 in
23:41 80.5 °F 67.2 °F 29.78 in Calm     64 % 0.00 in
23:46 80.4 °F 67.1 °F 29.78 in Calm     64 % 0.00 in
23:51 80.2 °F 67.8 °F 29.78 in Calm     66 % 0.00 in
23:56 80.1 °F 68.2 °F 29.78 in Calm     67 % 0.00 in
Park Place, Exeter, Tulare County, California, USA
Compliments of Weather Underground - 2.75 mb